Weather at Toussaint Louverture International Airport

Public forecast

Using degrees Celsius for public forecast. Weather courtesy of forecast.io.

Current aviation weather report (METAR) for Toussaint Louverture International Airport

Report is more than 6 hours old.

2024/07/19 23:00 (retrieved 7 hours ago)

MTPP 192300Z 26009KT 8000 TS SCT022CB BKN040 30/24 Q1015 A2997 RMK/CB/ALL QDS

Aviation forecast (TAF) for Toussaint Louverture International Airport

Forecast is more than 6 hours old.

2024/07/19 18:39 (retrieved 11 hours ago)

TAF MTPP 191730Z 1918/2018 10016G26KT 9000 FEW030 FEW034CB FM192200 28012KT 8000 SCT024TCU SCT040 PROB40 TEMPO 1923/2003 4800 TSRA SCT014CB BKN040 FM200600 10012KT 8000 FEW018 BECMG 2014/2016 10012G22KT